createdAt,value
2018-06-27T00:00:11.324Z,22.50
2018-06-27T00:01:11.253Z,23.70
2018-06-27T00:02:11.211Z,22.00
2018-06-27T00:03:11.157Z,22.70
2018-06-27T00:04:11.115Z,23.60
2018-06-27T00:05:11.096Z,22.00
2018-06-27T00:06:11.011Z,24.10
2018-06-27T00:07:10.963Z,24.80
2018-06-27T00:08:10.914Z,24.10
2018-06-27T00:09:10.866Z,25.00
2018-06-27T00:10:10.851Z,24.30
2018-06-27T00:11:10.771Z,24.70
2018-06-27T00:12:10.727Z,21.60
2018-06-27T00:13:10.677Z,25.40
2018-06-27T00:14:10.628Z,25.00
2018-06-27T00:15:10.603Z,25.30
2018-06-27T00:16:10.534Z,25.80
2018-06-27T00:17:10.486Z,24.30
2018-06-27T00:18:10.437Z,24.90
2018-06-27T00:19:10.384Z,22.50
2018-06-27T00:20:10.364Z,21.90
2018-06-27T00:21:10.290Z,22.60
2018-06-27T00:22:10.242Z,27.30
2018-06-27T00:23:10.197Z,24.80
2018-06-27T00:24:10.146Z,24.60
2018-06-27T00:25:10.126Z,25.50
2018-06-27T00:26:10.049Z,23.60
2018-06-27T00:27:10.012Z,24.90
2018-06-27T00:28:09.958Z,27.90
2018-06-27T00:29:09.908Z,25.70
2018-06-27T00:30:09.887Z,24.10
2018-06-27T00:31:09.809Z,23.80
2018-06-27T00:32:09.763Z,25.30
2018-06-27T00:33:09.714Z,23.70
2018-06-27T00:34:09.671Z,25.00
2018-06-27T00:35:09.643Z,28.90
2018-06-27T00:36:09.580Z,27.00
2018-06-27T00:37:09.522Z,27.20
2018-06-27T00:38:09.478Z,27.70
2018-06-27T00:39:09.426Z,26.60
2018-06-27T00:40:09.405Z,24.90
2018-06-27T00:41:09.331Z,24.80
2018-06-27T00:42:09.283Z,23.40
2018-06-27T00:43:09.240Z,24.80
2018-06-27T00:44:09.192Z,23.10
2018-06-27T00:45:09.163Z,25.40
2018-06-27T00:46:09.091Z,25.00
2018-06-27T00:47:09.053Z,25.00
2018-06-27T00:48:08.996Z,26.10
2018-06-27T00:49:08.953Z,22.90
2018-06-27T00:50:08.921Z,24.80
2018-06-27T00:51:08.864Z,26.60
2018-06-27T00:52:08.801Z,25.20
2018-06-27T00:53:08.756Z,24.90
2018-06-27T00:54:08.707Z,25.50
2018-06-27T00:55:08.682Z,26.30
2018-06-27T00:56:08.612Z,23.60
2018-06-27T00:57:08.561Z,23.90
2018-06-27T00:58:08.516Z,21.20
2018-06-27T00:59:08.470Z,26.40
2018-06-27T01:00:08.453Z,24.80
2018-06-27T01:01:08.370Z,26.20
2018-06-27T01:02:08.320Z,23.40
2018-06-27T01:03:08.275Z,28.70
2018-06-27T01:04:08.224Z,24.10
2018-06-27T01:05:08.178Z,25.00
2018-06-27T01:06:08.157Z,23.60
2018-06-27T01:07:08.087Z,24.20
2018-06-27T01:08:08.038Z,21.90
2018-06-27T01:09:07.984Z,23.50
2018-06-27T01:10:07.942Z,26.90
2018-06-27T01:11:07.911Z,25.10
2018-06-27T01:12:07.842Z,24.60
2018-06-27T01:13:07.792Z,25.50
2018-06-27T01:14:07.747Z,26.70
2018-06-27T01:15:07.696Z,24.50
2018-06-27T01:16:07.670Z,26.90
2018-06-27T01:17:07.600Z,28.20
2018-06-27T01:18:07.551Z,25.80
2018-06-27T01:19:07.504Z,26.80
2018-06-27T01:20:07.502Z,27.00
2018-06-27T01:21:07.429Z,27.50
2018-06-27T01:22:07.360Z,26.80
2018-06-27T01:23:07.311Z,30.70
2018-06-27T01:24:07.266Z,27.90
2018-06-27T01:25:07.210Z,26.10
2018-06-27T01:26:07.188Z,28.80
2018-06-27T01:27:07.116Z,27.80
2018-06-27T01:28:07.074Z,30.80
2018-06-27T01:29:07.021Z,27.70
2018-06-27T01:30:06.973Z,25.60
2018-06-27T01:31:06.945Z,27.10
2018-06-27T01:32:06.876Z,27.00
2018-06-27T01:33:06.827Z,27.80
2018-06-27T01:34:06.776Z,26.60
2018-06-27T01:35:06.730Z,29.60
2018-06-27T01:36:06.705Z,27.40
2018-06-27T01:37:06.637Z,27.60
2018-06-27T01:38:06.587Z,30.10
2018-06-27T01:39:06.536Z,29.20
2018-06-27T01:40:06.488Z,30.00
2018-06-27T01:41:06.466Z,27.10
2018-06-27T01:42:06.393Z,25.70
2018-06-27T01:43:06.344Z,29.40
2018-06-27T01:44:06.300Z,27.20
2018-06-27T01:45:06.248Z,28.00
2018-06-27T01:46:06.224Z,28.80
2018-06-27T01:47:06.153Z,28.00
2018-06-27T01:48:06.104Z,28.80
2018-06-27T01:49:06.053Z,26.70
2018-06-27T01:50:06.005Z,29.90
2018-06-27T01:51:05.979Z,28.00
2018-06-27T01:52:05.907Z,32.70
2018-06-27T01:53:05.856Z,29.40
2018-06-27T01:54:05.806Z,29.70
2018-06-27T01:55:05.764Z,27.70
2018-06-27T01:56:05.744Z,27.90
2018-06-27T01:57:05.664Z,26.50
2018-06-27T01:58:05.621Z,26.40
2018-06-27T01:59:05.568Z,29.60
2018-06-27T02:00:05.539Z,28.30
2018-06-27T02:01:05.497Z,30.80
2018-06-27T02:02:05.426Z,31.60
2018-06-27T02:03:05.377Z,29.60
2018-06-27T02:04:05.329Z,28.20
2018-06-27T02:05:05.275Z,28.90
2018-06-27T02:06:05.252Z,28.50
2018-06-27T02:07:05.185Z,30.20
2018-06-27T02:08:05.131Z,28.00
2018-06-27T02:09:05.092Z,29.00
2018-06-27T02:10:05.035Z,29.80
2018-06-27T02:11:05.014Z,29.10
2018-06-27T02:12:04.942Z,28.30
2018-06-27T02:13:04.890Z,28.50
2018-06-27T02:14:04.843Z,29.10
2018-06-27T02:15:04.800Z,27.80
2018-06-27T02:16:04.770Z,28.60
2018-06-27T02:17:04.702Z,28.90
2018-06-27T02:18:04.772Z,29.50
2018-06-27T02:19:04.601Z,29.00
2018-06-27T02:20:04.553Z,26.50
2018-06-27T02:21:04.526Z,30.20
2018-06-27T02:22:04.456Z,27.90
2018-06-27T02:23:04.410Z,28.90
2018-06-27T02:24:04.359Z,28.60
2018-06-27T02:25:04.315Z,30.10
2018-06-27T02:26:04.288Z,29.70
2018-06-27T02:27:04.214Z,30.20
2018-06-27T02:28:04.167Z,27.80
2018-06-27T02:29:04.116Z,28.50
2018-06-27T02:30:04.066Z,29.80
2018-06-27T02:31:04.051Z,30.60
2018-06-27T02:32:03.971Z,28.80
2018-06-27T02:33:03.928Z,25.90
2018-06-27T02:34:03.884Z,28.10
2018-06-27T02:35:03.832Z,26.20
2018-06-27T02:36:03.778Z,29.20
2018-06-27T02:37:03.751Z,27.60
2018-06-27T02:38:03.679Z,26.60
2018-06-27T02:39:03.636Z,27.90
2018-06-27T02:40:03.583Z,27.20
2018-06-27T02:41:03.538Z,29.10
2018-06-27T02:42:03.514Z,26.20
2018-06-27T02:43:03.438Z,28.60
2018-06-27T02:44:03.394Z,26.20
2018-06-27T02:45:03.345Z,29.30
2018-06-27T02:46:03.293Z,26.30
2018-06-27T02:47:03.269Z,25.30
2018-06-27T02:48:03.198Z,27.00
2018-06-27T02:49:03.150Z,26.70
2018-06-27T02:50:03.101Z,27.40
2018-06-27T02:51:03.054Z,29.40
2018-06-27T02:52:03.031Z,28.60
2018-06-27T02:53:02.958Z,27.20
2018-06-27T02:54:02.908Z,29.20
2018-06-27T02:55:02.859Z,26.80
2018-06-27T02:56:02.813Z,27.50
2018-06-27T02:57:02.783Z,25.10
2018-06-27T02:58:02.713Z,28.90
2018-06-27T02:59:02.665Z,25.90
2018-06-27T03:00:02.618Z,25.70
2018-06-27T03:01:02.572Z,30.00
2018-06-27T03:02:02.545Z,28.80
2018-06-27T03:03:02.475Z,25.20
2018-06-27T03:04:02.430Z,28.60
2018-06-27T03:05:02.372Z,27.90
2018-06-27T03:06:02.324Z,25.40
2018-06-27T03:07:02.301Z,28.90
2018-06-27T03:08:02.227Z,29.50
2018-06-27T03:09:02.179Z,28.50
2018-06-27T03:10:02.134Z,27.90
2018-06-27T03:11:02.086Z,27.20
2018-06-27T03:12:02.057Z,29.00
2018-06-27T03:13:01.988Z,26.60
2018-06-27T03:14:01.940Z,28.00
2018-06-27T03:15:01.893Z,26.40
2018-06-27T03:16:01.845Z,28.20
2018-06-27T03:17:01.817Z,28.30
2018-06-27T03:18:01.755Z,26.50
2018-06-27T03:19:01.698Z,29.10
2018-06-27T03:20:01.684Z,27.00
2018-06-27T03:21:01.597Z,27.20
2018-06-27T03:22:01.580Z,26.20
2018-06-27T03:23:01.504Z,22.60
2018-06-27T03:24:01.456Z,27.90
2018-06-27T03:25:01.416Z,25.50
2018-06-27T03:26:01.359Z,25.30
2018-06-27T03:27:01.333Z,25.90
2018-06-27T03:28:01.261Z,24.20
2018-06-27T03:29:01.215Z,28.00
2018-06-27T03:30:01.166Z,24.10
2018-06-27T03:31:01.116Z,25.20
2018-06-27T03:32:01.097Z,28.20
2018-06-27T03:33:01.020Z,28.20
2018-06-27T03:34:00.971Z,25.70
2018-06-27T03:35:00.925Z,26.10
2018-06-27T03:36:00.874Z,26.40
2018-06-27T03:37:00.849Z,24.90
2018-06-27T03:38:00.780Z,27.60
2018-06-27T03:39:00.730Z,25.30
2018-06-27T03:40:00.680Z,28.20
2018-06-27T03:41:00.639Z,28.10
2018-06-27T03:42:00.606Z,23.30
2018-06-27T03:43:00.535Z,25.30
2018-06-27T03:44:00.489Z,25.80
2018-06-27T03:45:00.436Z,27.30
2018-06-27T03:46:00.390Z,25.80
2018-06-27T03:47:00.366Z,25.00
2018-06-27T03:48:00.305Z,24.70
2018-06-27T03:49:00.245Z,25.70
2018-06-27T03:50:00.200Z,23.70
2018-06-27T03:51:00.150Z,26.20
2018-06-27T03:52:00.123Z,25.40
2018-06-27T03:53:00.051Z,24.00
2018-06-27T03:54:00.007Z,27.50
2018-06-27T03:54:59.953Z,24.90
2018-06-27T03:55:59.909Z,23.90
2018-06-27T03:56:59.879Z,25.10
2018-06-27T03:57:59.809Z,26.90
2018-06-27T03:58:59.820Z,24.70
2018-06-27T03:59:59.711Z,26.50
2018-06-27T04:00:59.660Z,24.60
2018-06-27T04:01:59.641Z,25.70
2018-06-27T04:02:59.571Z,26.90
2018-06-27T04:03:59.518Z,25.00
2018-06-27T04:04:59.474Z,25.10
2018-06-27T04:05:59.423Z,25.50
2018-06-27T04:06:59.373Z,26.90
2018-06-27T04:07:59.355Z,25.50
2018-06-27T04:08:59.272Z,26.10
2018-06-27T04:09:59.227Z,25.60
2018-06-27T04:10:59.178Z,25.50
2018-06-27T04:11:59.132Z,25.60
2018-06-27T04:12:59.150Z,25.90
2018-06-27T04:13:59.034Z,28.60
2018-06-27T04:14:58.995Z,24.60
2018-06-27T04:15:58.943Z,26.30
2018-06-27T04:16:58.891Z,24.60
2018-06-27T04:17:58.863Z,26.20
2018-06-27T04:18:58.795Z,22.50
2018-06-27T04:19:58.749Z,24.70
2018-06-27T04:21:05.729Z,23.60
2018-06-27T04:21:58.650Z,25.80
2018-06-27T04:22:58.625Z,23.90
2018-06-27T04:23:58.558Z,24.60
2018-06-27T04:24:58.503Z,23.70
2018-06-27T04:25:58.481Z,23.10
2018-06-27T04:26:58.407Z,24.20
2018-06-27T04:27:58.380Z,25.20
2018-06-27T04:28:58.307Z,25.30
2018-06-27T04:29:58.258Z,24.50
2018-06-27T04:30:58.214Z,24.30
2018-06-27T04:31:58.166Z,26.30
2018-06-27T04:32:58.141Z,26.00
2018-06-27T04:33:58.066Z,25.00
2018-06-27T04:34:58.020Z,24.90
2018-06-27T04:35:58.132Z,24.50
2018-06-27T04:36:57.925Z,24.90
2018-06-27T04:37:57.901Z,22.90
2018-06-27T04:38:57.829Z,24.60
2018-06-27T04:39:57.780Z,22.60
2018-06-27T04:40:57.728Z,22.80
2018-06-27T04:41:57.686Z,21.90
2018-06-27T04:42:57.665Z,24.00
2018-06-27T04:43:57.590Z,25.70
2018-06-27T04:44:57.541Z,23.20
2018-06-27T04:45:57.492Z,22.00
2018-06-27T04:46:57.444Z,21.50
2018-06-27T04:47:57.418Z,21.70
2018-06-27T04:48:57.350Z,19.20
2018-06-27T04:49:57.304Z,19.90
2018-06-27T04:50:57.251Z,20.20
2018-06-27T04:51:57.203Z,20.40
2018-06-27T04:52:57.179Z,25.00
2018-06-27T04:53:57.109Z,22.80
2018-06-27T04:54:57.085Z,19.80
2018-06-27T04:55:57.010Z,18.80
2018-06-27T04:56:56.967Z,19.60
2018-06-27T04:57:56.947Z,19.40
2018-06-27T04:58:56.865Z,19.90
2018-06-27T04:59:56.822Z,23.70
2018-06-27T05:00:56.775Z,19.10
2018-06-27T05:01:56.727Z,19.00
2018-06-27T05:02:56.709Z,20.40
2018-06-27T05:03:56.633Z,22.30
2018-06-27T05:04:56.580Z,17.90
2018-06-27T05:05:56.540Z,17.70
2018-06-27T05:06:56.487Z,17.60
2018-06-27T05:07:56.464Z,17.20
2018-06-27T05:08:56.391Z,17.90
2018-06-27T05:09:56.348Z,17.80
2018-06-27T05:10:56.296Z,19.50
2018-06-27T05:11:56.250Z,18.90
2018-06-27T05:12:56.229Z,19.00
2018-06-27T05:13:56.158Z,18.60
2018-06-27T05:14:56.114Z,19.80
2018-06-27T05:15:56.111Z,18.90
2018-06-27T05:16:56.013Z,18.90
2018-06-27T05:17:55.991Z,20.50
2018-06-27T05:18:55.923Z,19.20
2018-06-27T05:19:55.873Z,19.80
2018-06-27T05:20:55.827Z,19.70
2018-06-27T05:21:55.778Z,19.90
2018-06-27T05:22:55.753Z,17.10
2018-06-27T05:23:55.682Z,18.00
2018-06-27T05:24:55.639Z,20.90
2018-06-27T05:25:55.590Z,17.90
2018-06-27T05:26:55.543Z,16.70
2018-06-27T05:27:55.531Z,20.10
2018-06-27T05:28:55.449Z,19.90
2018-06-27T05:29:55.404Z,22.40
2018-06-27T05:30:55.361Z,18.00
2018-06-27T05:31:55.308Z,18.80
2018-06-27T05:32:55.261Z,17.80
2018-06-27T05:33:55.257Z,18.10
2018-06-27T05:34:55.166Z,17.60
2018-06-27T05:35:55.125Z,22.50
2018-06-27T05:36:55.073Z,21.80
2018-06-27T05:37:55.036Z,21.10
2018-06-27T05:38:55.007Z,21.40
2018-06-27T05:39:54.933Z,23.60
2018-06-27T05:40:54.887Z,23.20
2018-06-27T05:41:54.839Z,23.30
2018-06-27T05:42:54.791Z,21.80
2018-06-27T05:43:54.767Z,23.00
2018-06-27T05:44:54.699Z,22.30
2018-06-27T05:45:54.654Z,20.60
2018-06-27T05:46:54.603Z,19.70
2018-06-27T05:47:54.557Z,22.90
2018-06-27T05:48:54.531Z,20.90
2018-06-27T05:49:54.463Z,21.90
2018-06-27T05:50:54.421Z,22.40
2018-06-27T05:51:54.370Z,20.30
2018-06-27T05:52:54.324Z,21.80
2018-06-27T05:53:54.300Z,20.50
2018-06-27T05:54:54.227Z,21.00
2018-06-27T05:55:54.183Z,21.30
2018-06-27T05:56:54.141Z,22.80
2018-06-27T05:57:54.098Z,21.30
2018-06-27T05:58:54.070Z,20.40
2018-06-27T05:59:53.999Z,19.70
2018-06-27T06:00:53.952Z,20.20
2018-06-27T06:01:53.905Z,19.80
2018-06-27T06:02:53.862Z,18.40
2018-06-27T06:03:53.835Z,18.10
2018-06-27T06:04:53.765Z,18.60
2018-06-27T06:05:53.718Z,21.10
2018-06-27T06:06:53.676Z,23.00
2018-06-27T06:07:53.630Z,21.70
2018-06-27T06:08:53.603Z,20.10
2018-06-27T06:09:53.534Z,19.60
2018-06-27T06:10:53.483Z,20.20
2018-06-27T06:11:53.439Z,20.00
2018-06-27T06:12:53.398Z,20.10
2018-06-27T06:13:53.369Z,18.70
2018-06-27T06:14:53.311Z,17.10
2018-06-27T06:15:53.254Z,18.50
2018-06-27T06:16:53.209Z,17.80
2018-06-27T06:17:53.161Z,18.50
2018-06-27T06:18:53.144Z,19.70
2018-06-27T06:19:53.153Z,20.10
2018-06-27T06:20:53.024Z,18.00
2018-06-27T06:21:52.973Z,20.70
2018-06-27T06:22:52.928Z,19.40
2018-06-27T06:23:52.907Z,17.70
2018-06-27T06:24:52.832Z,18.10
2018-06-27T06:25:52.787Z,18.00
2018-06-27T06:26:52.756Z,18.60
2018-06-27T06:27:52.699Z,19.90
2018-06-27T06:28:52.676Z,19.40
2018-06-27T06:29:52.600Z,22.40
2018-06-27T06:30:52.555Z,19.60
2018-06-27T06:31:52.507Z,17.80
2018-06-27T06:32:52.461Z,21.20
2018-06-27T06:33:52.436Z,19.00
2018-06-27T06:34:52.375Z,20.20
2018-06-27T06:35:52.319Z,21.00
2018-06-27T06:36:52.275Z,21.80
2018-06-27T06:37:52.228Z,22.80
2018-06-27T06:38:52.203Z,22.20
2018-06-27T06:39:52.131Z,20.60
2018-06-27T06:40:52.085Z,21.10
2018-06-27T06:41:52.041Z,20.70
2018-06-27T06:42:51.992Z,20.20
2018-06-27T06:43:51.971Z,18.10
2018-06-27T06:44:51.899Z,20.10
2018-06-27T06:45:51.849Z,17.10
2018-06-27T06:46:51.800Z,20.60
2018-06-27T06:47:51.760Z,19.50
2018-06-27T06:48:51.734Z,19.90
2018-06-27T06:49:51.662Z,19.90
2018-06-27T06:50:51.618Z,19.90
2018-06-27T06:51:51.571Z,22.50
2018-06-27T06:52:51.519Z,21.30
2018-06-27T06:53:51.512Z,24.00
2018-06-27T06:54:51.429Z,23.10
2018-06-27T06:55:51.387Z,21.50
2018-06-27T06:56:51.335Z,19.90
2018-06-27T06:57:51.284Z,22.20
2018-06-27T06:58:51.242Z,22.10
2018-06-27T06:59:51.222Z,23.40
2018-06-27T07:00:51.146Z,20.70
2018-06-27T07:01:51.096Z,20.70
2018-06-27T07:02:51.051Z,19.40
2018-06-27T07:03:51.004Z,19.30
2018-06-27T07:04:51.066Z,18.70
2018-06-27T07:05:50.925Z,19.00
2018-06-27T07:06:50.865Z,18.60
2018-06-27T07:07:50.816Z,18.40
2018-06-27T07:08:50.771Z,19.60
2018-06-27T07:09:50.748Z,18.60
2018-06-27T07:10:50.680Z,19.20
2018-06-27T07:11:50.635Z,17.40
2018-06-27T07:12:50.586Z,16.80
2018-06-27T07:13:50.540Z,20.70
2018-06-27T07:14:50.519Z,18.50
2018-06-27T07:15:50.447Z,16.90
2018-06-27T07:16:50.408Z,17.30
2018-06-27T07:17:50.391Z,16.40
2018-06-27T07:18:50.308Z,17.70
2018-06-27T07:19:50.290Z,17.00
2018-06-27T07:20:50.222Z,17.20
2018-06-27T07:21:50.170Z,15.20
2018-06-27T07:22:50.127Z,16.00
2018-06-27T07:23:50.081Z,16.70
2018-06-27T07:24:50.055Z,16.10
2018-06-27T07:25:49.992Z,17.20
2018-06-27T07:26:49.946Z,16.60
2018-06-27T07:27:49.898Z,15.10
2018-06-27T07:28:49.886Z,17.00
2018-06-27T07:29:49.849Z,16.90
2018-06-27T07:30:49.762Z,19.00
2018-06-27T07:31:49.716Z,16.70
2018-06-27T07:32:49.670Z,16.20
2018-06-27T07:33:49.636Z,16.30
2018-06-27T07:34:49.609Z,15.20
2018-06-27T07:35:49.538Z,18.20
2018-06-27T07:36:49.489Z,16.60
2018-06-27T07:37:49.444Z,15.40
2018-06-27T07:38:49.401Z,14.90
2018-06-27T07:39:49.375Z,14.50
2018-06-27T07:40:49.312Z,13.90
2018-06-27T07:41:49.259Z,16.00
2018-06-27T07:42:49.221Z,14.90
2018-06-27T07:43:49.177Z,15.50
2018-06-27T07:44:49.151Z,17.20
2018-06-27T07:45:49.086Z,15.80
2018-06-27T07:46:49.038Z,16.40
2018-06-27T07:47:49.003Z,18.60
2018-06-27T07:48:48.951Z,14.40
2018-06-27T07:49:48.946Z,16.40
2018-06-27T07:50:48.861Z,15.30
2018-06-27T07:51:48.818Z,15.70
2018-06-27T07:52:48.772Z,13.40
2018-06-27T07:53:48.729Z,15.30
2018-06-27T07:54:48.704Z,15.90
2018-06-27T07:55:48.636Z,14.80
2018-06-27T07:56:48.595Z,14.50
2018-06-27T07:57:48.549Z,16.00
2018-06-27T07:58:48.502Z,15.50
2018-06-27T07:59:48.484Z,16.10
2018-06-27T08:00:48.417Z,16.00
2018-06-27T08:01:48.370Z,15.40
2018-06-27T08:02:48.327Z,13.70
2018-06-27T08:03:48.287Z,14.40
2018-06-27T08:04:48.261Z,16.00
2018-06-27T08:05:48.251Z,15.70
2018-06-27T08:06:48.149Z,16.50
2018-06-27T08:07:48.103Z,14.30
2018-06-27T08:08:48.056Z,15.40
2018-06-27T08:09:48.040Z,15.10
2018-06-27T08:10:47.968Z,15.60
2018-06-27T08:11:47.928Z,17.20
2018-06-27T08:12:47.884Z,15.60
2018-06-27T08:13:47.840Z,16.60
2018-06-27T08:14:47.819Z,15.30
2018-06-27T08:15:47.762Z,16.40
2018-06-27T08:16:47.703Z,15.30
2018-06-27T08:17:47.733Z,17.00
2018-06-27T08:18:47.615Z,15.10
2018-06-27T08:19:47.598Z,15.90
2018-06-27T08:20:47.530Z,15.20
2018-06-27T08:21:47.482Z,17.80
2018-06-27T08:22:47.440Z,14.90
2018-06-27T08:23:47.397Z,16.90
2018-06-27T08:24:47.380Z,15.60
2018-06-27T08:25:47.310Z,15.90
2018-06-27T08:26:47.268Z,14.40
2018-06-27T08:27:47.227Z,13.50
2018-06-27T08:28:47.179Z,13.80
2018-06-27T08:29:47.131Z,14.90
2018-06-27T08:30:47.114Z,15.00
2018-06-27T08:31:47.042Z,15.10
2018-06-27T08:32:47.002Z,16.00
2018-06-27T08:33:46.962Z,18.00
2018-06-27T08:34:46.918Z,15.10
2018-06-27T08:35:46.898Z,15.40
2018-06-27T08:36:46.826Z,15.90
2018-06-27T08:37:46.782Z,15.30
2018-06-27T08:38:46.742Z,12.90
2018-06-27T08:39:46.701Z,12.50
2018-06-27T08:40:46.672Z,13.20
2018-06-27T08:41:46.604Z,12.90
2018-06-27T08:42:46.565Z,13.60
2018-06-27T08:43:46.599Z,14.80
2018-06-27T08:44:46.472Z,14.80
2018-06-27T08:45:46.464Z,14.80
2018-06-27T08:46:46.383Z,14.00
2018-06-27T08:47:46.345Z,13.70
2018-06-27T08:48:46.296Z,13.50
2018-06-27T08:49:46.255Z,14.00
2018-06-27T08:50:46.233Z,15.10
2018-06-27T08:51:46.168Z,14.80
2018-06-27T08:52:46.125Z,14.40
2018-06-27T08:53:46.082Z,15.00
2018-06-27T08:54:46.042Z,16.80
2018-06-27T08:55:46.018Z,16.70
2018-06-27T08:56:45.949Z,13.10
2018-06-27T08:57:45.903Z,14.20
2018-06-27T08:58:45.910Z,16.40
2018-06-27T08:59:45.824Z,13.60
2018-06-27T09:00:45.794Z,14.70
2018-06-27T09:01:45.725Z,13.40
2018-06-27T09:02:45.686Z,13.50
2018-06-27T09:03:45.639Z,14.50
2018-06-27T09:04:45.597Z,14.70
2018-06-27T09:05:45.575Z,13.00
2018-06-27T09:06:45.512Z,13.80
2018-06-27T09:07:45.527Z,15.20
2018-06-27T09:08:45.423Z,14.40
2018-06-27T09:09:45.375Z,12.90
2018-06-27T09:10:45.357Z,12.60
2018-06-27T09:11:45.291Z,14.20
2018-06-27T09:12:45.244Z,12.70
2018-06-27T09:13:45.209Z,11.40
2018-06-27T09:14:45.160Z,12.40
2018-06-27T09:15:45.136Z,12.90
2018-06-27T09:16:45.075Z,13.10
2018-06-27T09:17:45.026Z,12.50
2018-06-27T09:18:44.981Z,14.20
2018-06-27T09:19:44.944Z,14.10
2018-06-27T09:20:44.921Z,12.60
2018-06-27T09:21:44.853Z,12.20
2018-06-27T09:22:44.809Z,11.90
2018-06-27T09:23:44.763Z,11.70
2018-06-27T09:24:44.715Z,12.60
2018-06-27T09:25:44.697Z,13.30
2018-06-27T09:26:44.629Z,13.00
2018-06-27T09:27:44.596Z,11.30
2018-06-27T09:28:44.541Z,12.10
2018-06-27T09:29:44.499Z,10.70
2018-06-27T09:30:44.475Z,9.80
2018-06-27T09:31:44.409Z,10.00
2018-06-27T09:32:44.364Z,12.30
2018-06-27T09:33:44.322Z,9.60
2018-06-27T09:34:44.277Z,11.50
2018-06-27T09:35:44.259Z,10.90
2018-06-27T09:36:45.130Z,10.40
2018-06-27T09:37:44.159Z,12.30
2018-06-27T09:38:44.106Z,10.80
2018-06-27T09:39:44.062Z,11.20
2018-06-27T09:40:44.041Z,9.90
2018-06-27T09:41:43.983Z,8.20
2018-06-27T09:42:43.929Z,8.00
2018-06-27T09:43:43.885Z,8.80
2018-06-27T09:44:43.842Z,11.30
2018-06-27T09:45:43.822Z,9.40
2018-06-27T09:46:43.760Z,7.70
2018-06-27T09:47:43.719Z,6.60
2018-06-27T09:48:43.670Z,7.90
2018-06-27T09:49:43.628Z,9.10
2018-06-27T09:50:43.608Z,6.70
2018-06-27T09:51:43.540Z,6.50
2018-06-27T09:52:43.503Z,5.90
2018-06-27T09:53:43.455Z,5.20
2018-06-27T09:54:43.411Z,6.50
2018-06-27T09:55:43.400Z,7.70
2018-06-27T09:56:43.379Z,6.00
2018-06-27T09:57:43.282Z,6.10
2018-06-27T09:58:43.236Z,6.80
2018-06-27T09:59:43.196Z,5.80
2018-06-27T10:00:43.147Z,4.20
2018-06-27T10:01:43.131Z,4.30
2018-06-27T10:02:43.063Z,5.10
2018-06-27T10:03:43.023Z,4.00
2018-06-27T10:04:42.980Z,3.50
2018-06-27T10:05:42.942Z,5.00
2018-06-27T10:06:42.923Z,4.50
2018-06-27T10:07:42.906Z,5.10
2018-06-27T10:08:42.808Z,4.70
2018-06-27T10:09:42.761Z,5.20
2018-06-27T10:10:42.722Z,6.20
2018-06-27T10:11:42.704Z,5.70
2018-06-27T10:12:42.637Z,4.90
2018-06-27T10:13:42.601Z,5.10
2018-06-27T10:14:42.552Z,4.00
2018-06-27T10:15:42.504Z,4.30
2018-06-27T10:16:42.488Z,5.50
2018-06-27T10:17:42.418Z,5.70
2018-06-27T10:18:42.377Z,4.60
2018-06-27T10:19:42.389Z,6.60
2018-06-27T10:20:42.290Z,6.80
2018-06-27T10:21:42.276Z,5.00
2018-06-27T10:22:42.285Z,5.00
2018-06-27T10:23:42.166Z,5.40
2018-06-27T10:24:42.120Z,4.00
2018-06-27T10:25:42.079Z,4.50
2018-06-27T10:26:42.062Z,4.00
2018-06-27T10:27:41.993Z,4.90
2018-06-27T10:28:41.946Z,3.60
2018-06-27T10:29:41.906Z,3.80
2018-06-27T10:30:41.862Z,5.10
2018-06-27T10:31:41.845Z,5.00
2018-06-27T10:32:41.778Z,5.10
2018-06-27T10:33:41.737Z,4.50
2018-06-27T10:34:41.695Z,4.40
2018-06-27T10:35:41.716Z,4.50
2018-06-27T10:36:41.643Z,4.50
2018-06-27T10:37:41.563Z,5.20
2018-06-27T10:38:49.188Z,4.90
2018-06-27T10:39:41.481Z,5.00
2018-06-27T10:40:41.439Z,5.80
2018-06-27T10:41:41.418Z,4.10
2018-06-27T10:42:41.351Z,5.00
2018-06-27T10:43:41.312Z,6.30
2018-06-27T10:44:41.268Z,5.60
2018-06-27T10:45:41.227Z,3.90
2018-06-27T10:46:41.211Z,4.70
2018-06-27T10:47:41.146Z,5.40
2018-06-27T10:48:41.098Z,3.50
2018-06-27T10:49:41.061Z,4.60
2018-06-27T10:50:48.056Z,4.50
2018-06-27T10:51:40.995Z,5.80
2018-06-27T10:52:40.933Z,4.30
2018-06-27T10:53:40.882Z,3.90
2018-06-27T10:54:40.844Z,4.00
2018-06-27T10:55:40.803Z,4.90
2018-06-27T10:56:40.784Z,3.90
2018-06-27T10:57:40.716Z,3.30
2018-06-27T10:58:40.675Z,4.10
2018-06-27T10:59:40.629Z,3.70
2018-06-27T11:00:40.591Z,3.30
2018-06-27T11:01:40.580Z,3.30
2018-06-27T11:02:40.504Z,3.20
2018-06-27T11:03:40.466Z,3.90
2018-06-27T11:04:40.423Z,3.60
2018-06-27T11:05:40.381Z,3.70
2018-06-27T11:06:40.358Z,3.50
2018-06-27T11:07:40.293Z,4.40
2018-06-27T11:08:40.248Z,4.60
2018-06-27T11:09:40.213Z,2.90
2018-06-27T11:10:40.169Z,4.20
2018-06-27T11:11:40.147Z,3.10
2018-06-27T11:12:40.080Z,4.20
2018-06-27T11:13:40.036Z,3.00
2018-06-27T11:14:40.004Z,2.80
2018-06-27T11:15:39.951Z,3.60
2018-06-27T11:16:39.947Z,3.70
2018-06-27T11:17:39.871Z,3.20
2018-06-27T11:18:39.826Z,4.50
2018-06-27T11:19:39.782Z,3.00
2018-06-27T11:20:39.742Z,4.00
2018-06-27T11:21:39.699Z,3.50
2018-06-27T11:22:39.679Z,4.10
2018-06-27T11:23:39.613Z,3.90
2018-06-27T11:24:39.569Z,3.40
2018-06-27T11:25:39.530Z,5.30
2018-06-27T11:26:39.487Z,3.40
2018-06-27T11:27:39.463Z,4.00
2018-06-27T11:28:39.400Z,4.00
2018-06-27T11:29:39.360Z,4.00
2018-06-27T11:30:39.315Z,5.40
2018-06-27T11:31:39.280Z,5.50
2018-06-27T11:32:39.254Z,3.90
2018-06-27T11:33:39.196Z,5.00
2018-06-27T11:34:39.143Z,4.00
2018-06-27T11:35:39.105Z,4.40
2018-06-27T11:36:39.063Z,5.00
2018-06-27T11:37:39.042Z,4.90
2018-06-27T11:38:39.106Z,5.50
2018-06-27T11:39:38.934Z,5.40
2018-06-27T11:40:38.892Z,5.50
2018-06-27T11:41:38.864Z,4.90
2018-06-27T11:42:38.831Z,4.80
2018-06-27T11:43:38.763Z,4.80
2018-06-27T11:44:38.822Z,5.00
2018-06-27T11:45:38.683Z,4.20
2018-06-27T11:46:38.635Z,5.20
2018-06-27T11:47:38.614Z,3.80
2018-06-27T11:48:38.551Z,3.90
2018-06-27T11:49:38.509Z,3.10
2018-06-27T11:50:38.463Z,3.70
2018-06-27T11:51:38.422Z,3.60
2018-06-27T11:52:38.399Z,4.40
2018-06-27T11:53:38.339Z,3.80
2018-06-27T11:54:38.292Z,3.40
2018-06-27T11:55:38.253Z,2.70
2018-06-27T11:56:38.208Z,3.00
2018-06-27T11:57:38.189Z,3.20
2018-06-27T11:58:38.124Z,2.30
2018-06-27T11:59:38.090Z,2.80
2018-06-27T12:00:38.037Z,2.50
2018-06-27T12:01:37.992Z,3.10
2018-06-27T12:02:37.973Z,3.20
2018-06-27T12:03:37.917Z,2.70
2018-06-27T12:04:37.864Z,3.10
2018-06-27T12:05:37.824Z,2.20
2018-06-27T12:06:37.790Z,3.50
2018-06-27T12:07:37.764Z,2.30
2018-06-27T12:08:37.700Z,4.00
2018-06-27T12:09:37.650Z,2.80
2018-06-27T12:10:37.607Z,4.10
2018-06-27T12:11:37.588Z,3.20
2018-06-27T12:12:37.549Z,2.80
2018-06-27T12:13:37.479Z,2.60
2018-06-27T12:14:37.439Z,3.20
2018-06-27T12:15:37.396Z,3.30
2018-06-27T12:16:37.352Z,4.00
2018-06-27T12:17:37.332Z,3.00
2018-06-27T12:18:37.263Z,3.60
2018-06-27T12:19:37.225Z,3.10
2018-06-27T12:20:37.179Z,3.70
2018-06-27T12:21:37.150Z,2.60
2018-06-27T12:22:37.118Z,3.80
2018-06-27T12:23:37.052Z,3.70
2018-06-27T12:24:37.057Z,4.00
2018-06-27T12:25:36.969Z,3.50
2018-06-27T12:26:36.923Z,3.80
2018-06-27T12:27:36.905Z,3.80
2018-06-27T12:28:36.852Z,3.80
2018-06-27T12:29:36.796Z,2.90
2018-06-27T12:30:36.753Z,2.90
2018-06-27T12:31:36.707Z,2.60
2018-06-27T12:32:36.693Z,2.90
2018-06-27T12:33:36.624Z,2.80
2018-06-27T12:34:36.584Z,3.50
2018-06-27T12:35:36.543Z,3.60
2018-06-27T12:36:36.493Z,3.90
2018-06-27T12:37:36.474Z,3.50
2018-06-27T12:38:36.414Z,3.30
2018-06-27T12:39:36.369Z,3.30
2018-06-27T12:40:36.329Z,3.50
2018-06-27T12:41:36.281Z,2.60
2018-06-27T12:42:36.261Z,3.50
2018-06-27T12:43:36.195Z,3.30
2018-06-27T12:44:36.155Z,2.70
2018-06-27T12:45:36.111Z,4.00
2018-06-27T12:46:36.069Z,3.80
2018-06-27T12:47:36.066Z,4.00
2018-06-27T12:48:35.986Z,2.90
2018-06-27T12:49:35.940Z,3.60
2018-06-27T12:50:35.903Z,3.10
2018-06-27T12:51:35.857Z,3.60
2018-06-27T12:52:35.810Z,3.00
2018-06-27T12:53:35.796Z,3.60
2018-06-27T12:54:35.728Z,4.90
2018-06-27T12:55:35.685Z,3.70
2018-06-27T12:56:35.642Z,3.90
2018-06-27T12:57:35.600Z,3.70
2018-06-27T12:58:35.588Z,4.00